Time;durP1;ratioP1;P1;durP2;ratioP2;P2;SDS_P1;SDS_P2;PMS_P1;PMS_P2;Temp;Humidity;BMP_temperature;BMP_pressure;BME280_temperature;BME280_humidity;BME280_pressure;Samples;Min_cycle;Max_cycle;Signal;HPM_P1;HPM_P2
2023/12/12 00:01:59;;;;;;;13.15;3.85;;;4.30;99.90;;;;;;5078830;28;20088;-78
2023/12/12 00:04:26;;;;;;;10.25;4.00;;;4.20;99.90;;;;;;5079309;28;20380;-78
2023/12/12 00:06:52;;;;;;;12.65;3.80;;;4.20;99.90;;;;;;5095629;28;20131;-78
2023/12/12 00:09:18;;;;;;;10.68;3.97;;;4.20;99.90;;;;;;5095731;28;20487;-78
2023/12/12 00:11:44;;;;;;;10.60;4.07;;;4.10;99.90;;;;;;5095539;28;20454;-77
2023/12/12 00:14:09;;;;;;;8.10;3.90;;;4.10;99.90;;;;;;5095402;28;20039;-79
2023/12/12 00:16:35;;;;;;;10.05;4.15;;;4.10;99.90;;;;;;5095608;28;20062;-78
2023/12/12 00:19:01;;;;;;;9.63;3.63;;;4.10;99.90;;;;;;5078299;28;20070;-78
2023/12/12 00:21:27;;;;;;;9.95;3.90;;;4.10;99.90;;;;;;5095159;28;20086;-78
2023/12/12 00:23:53;;;;;;;13.30;3.75;;;4.10;99.90;;;;;;5078427;28;20075;-78
2023/12/12 00:26:18;;;;;;;13.38;4.10;;;4.00;99.90;;;;;;5078362;28;20040;-78
2023/12/12 00:28:44;;;;;;;10.80;3.67;;;4.00;99.90;;;;;;5095404;28;20394;-78
2023/12/12 00:31:10;;;;;;;9.45;3.83;;;3.90;99.90;;;;;;5077887;28;20054;-78
2023/12/12 00:33:36;;;;;;;10.43;3.85;;;3.90;99.90;;;;;;5078777;28;20137;-78
2023/12/12 00:36:02;;;;;;;11.07;3.90;;;3.90;99.90;;;;;;5095084;28;20075;-78
2023/12/12 00:38:29;;;;;;;15.20;4.68;;;3.90;99.90;;;;;;5095174;28;20400;-78
2023/12/12 00:40:55;;;;;;;12.65;4.38;;;4.00;99.90;;;;;;5095124;28;20536;-78
2023/12/12 00:43:22;;;;;;;12.27;4.03;;;3.90;99.90;;;;;;5095013;28;20039;-78
2023/12/12 00:45:48;;;;;;;12.93;4.05;;;3.80;99.90;;;;;;5078361;28;20043;-78
2023/12/12 00:48:14;;;;;;;11.23;4.13;;;3.80;99.90;;;;;;5095067;28;20032;-77
2023/12/12 00:50:39;;;;;;;10.73;3.95;;;3.80;99.90;;;;;;5078031;28;20035;-78
2023/12/12 00:53:05;;;;;;;11.88;4.30;;;3.80;99.90;;;;;;5095165;28;20104;-78
2023/12/12 00:55:31;;;;;;;12.32;4.32;;;3.80;99.90;;;;;;5094796;28;20084;-78
2023/12/12 00:57:57;;;;;;;11.88;4.30;;;3.70;99.90;;;;;;5094613;28;20059;-78
2023/12/12 01:00:22;;;;;;;10.55;4.28;;;3.70;99.90;;;;;;5094639;28;20094;-78
2023/12/12 01:02:49;;;;;;;12.27;4.50;;;3.70;99.90;;;;;;5094608;28;20043;-77
2023/12/12 01:05:15;;;;;;;12.48;5.03;;;3.70;99.90;;;;;;5094705;28;20464;-77
2023/12/12 01:07:40;;;;;;;16.05;4.85;;;3.70;99.90;;;;;;5061275;28;20067;-78
2023/12/12 01:10:06;;;;;;;12.38;4.72;;;3.60;99.90;;;;;;5095000;28;20053;-71
2023/12/12 01:12:32;;;;;;;13.05;4.93;;;3.70;99.90;;;;;;5078276;28;20044;-70
2023/12/12 01:14:59;;;;;;;13.90;4.43;;;3.60;99.90;;;;;;5094547;28;20088;-71
2023/12/12 01:17:25;;;;;;;10.80;4.40;;;3.60;99.90;;;;;;5094688;28;20128;-71
2023/12/12 01:19:51;;;;;;;12.40;4.68;;;3.70;99.90;;;;;;5094358;28;20087;-71
2023/12/12 01:22:17;;;;;;;11.55;4.47;;;3.60;99.90;;;;;;5094529;28;20168;-71
2023/12/12 01:24:43;;;;;;;10.05;3.90;;;3.60;99.90;;;;;;5094826;28;20165;-71
2023/12/12 01:27:11;;;;;;;11.68;4.10;;;3.60;99.90;;;;;;5094661;28;20031;-71
2023/12/12 01:29:38;;;;;;;11.32;4.50;;;3.60;99.90;;;;;;5094535;28;20039;-71
2023/12/12 01:32:04;;;;;;;12.60;4.18;;;3.70;99.90;;;;;;5077635;28;20119;-70
2023/12/12 01:34:30;;;;;;;18.58;5.30;;;3.50;99.90;;;;;;5094588;28;20043;-71
2023/12/12 01:36:56;;;;;;;11.55;4.53;;;3.50;99.90;;;;;;5094577;28;20093;-70
2023/12/12 01:39:22;;;;;;;12.50;4.38;;;3.50;99.90;;;;;;5094258;28;20411;-71
2023/12/12 01:41:48;;;;;;;13.07;4.63;;;3.40;99.90;;;;;;5094448;28;20045;-71
2023/12/12 01:44:14;;;;;;;11.98;4.70;;;3.40;99.90;;;;;;5064544;28;20038;-71
2023/12/12 01:46:42;;;;;;;14.43;5.07;;;3.40;99.90;;;;;;5098228;28;20039;-71
2023/12/12 01:49:08;;;;;;;12.48;5.55;;;3.40;99.90;;;;;;5098291;28;20471;-71
2023/12/12 01:51:35;;;;;;;11.20;4.80;;;3.40;99.90;;;;;;5098361;28;20069;-71
2023/12/12 01:54:02;;;;;;;12.73;4.82;;;3.50;99.90;;;;;;5098040;28;20048;-70
2023/12/12 01:56:29;;;;;;;14.60;5.78;;;3.30;99.90;;;;;;5097898;28;20047;-71
2023/12/12 01:58:57;;;;;;;8.77;4.75;;;3.30;99.90;;;;;;5081016;28;20056;-70
2023/12/12 02:01:24;;;;;;;12.82;5.60;;;3.30;99.90;;;;;;5098061;28;20047;-71
2023/12/12 02:03:52;;;;;;;12.25;6.22;;;3.30;99.90;;;;;;5098221;28;20507;-71
2023/12/12 02:06:22;;;;;;;13.20;5.82;;;3.20;99.90;;;;;;5098134;28;20434;-71
2023/12/12 02:08:51;;;;;;;14.07;5.93;;;3.20;99.90;;;;;;5098398;28;20032;-71
2023/12/12 02:11:18;;;;;;;14.88;6.68;;;3.20;99.90;;;;;;5097717;28;20079;-71
2023/12/12 02:13:44;;;;;;;15.80;6.78;;;3.40;99.90;;;;;;5097707;28;20050;-70
2023/12/12 02:16:10;;;;;;;18.75;8.45;;;3.10;99.90;;;;;;5080797;28;20073;-70
2023/12/12 02:18:36;;;;;;;17.00;7.50;;;3.20;99.90;;;;;;5080758;28;20096;-77
2023/12/12 02:21:02;;;;;;;17.23;8.35;;;3.30;99.90;;;;;;5097569;28;20035;-77
2023/12/12 02:23:29;;;;;;;18.40;8.27;;;3.20;99.90;;;;;;5097462;28;20048;-77
2023/12/12 02:25:56;;;;;;;12.77;6.47;;;3.20;99.90;;;;;;5081052;28;20031;-76
2023/12/12 02:28:22;;;;;;;15.43;8.07;;;3.20;99.90;;;;;;5097680;28;20364;-77
2023/12/12 02:30:47;;;;;;;13.52;6.82;;;3.10;99.90;;;;;;5097446;28;20100;-77
2023/12/12 02:33:13;;;;;;;17.63;8.73;;;3.20;99.90;;;;;;5063679;28;20035;-77
2023/12/12 02:35:39;;;;;;;16.95;7.85;;;3.20;99.90;;;;;;5097223;28;20042;-77
2023/12/12 02:38:05;;;;;;;18.63;9.40;;;3.10;99.90;;;;;;5097293;28;20452;-77
2023/12/12 02:40:31;;;;;;;16.90;9.02;;;3.10;99.90;;;;;;5080292;28;20191;-77
2023/12/12 02:42:56;;;;;;;17.23;8.45;;;3.10;99.90;;;;;;5097033;28;20040;-77
2023/12/12 02:45:22;;;;;;;15.85;8.23;;;3.10;99.90;;;;;;5097374;28;20035;-77
2023/12/12 02:47:48;;;;;;;18.60;8.45;;;3.10;99.90;;;;;;5097148;28;20031;-77
2023/12/12 02:50:14;;;;;;;17.30;7.57;;;3.10;99.90;;;;;;5097077;28;20039;-77
2023/12/12 02:52:39;;;;;;;29.60;12.95;;;3.10;99.90;;;;;;5080285;28;20039;-78
2023/12/12 02:55:05;;;;;;;27.08;12.48;;;3.10;99.90;;;;;;5096659;28;20548;-77
2023/12/12 02:57:31;;;;;;;19.67;10.93;;;3.10;99.90;;;;;;5096630;28;20064;-77
2023/12/12 02:59:57;;;;;;;29.42;13.10;;;3.20;99.90;;;;;;5096919;28;20101;-76
2023/12/12 03:02:22;;;;;;;26.73;12.65;;;3.20;99.90;;;;;;5096665;28;20570;-77
2023/12/12 03:04:48;;;;;;;23.58;12.77;;;3.20;99.90;;;;;;5079994;28;20042;-77
2023/12/12 03:07:14;;;;;;;21.10;11.38;;;3.20;99.90;;;;;;5096901;28;20392;-77
2023/12/12 03:09:40;;;;;;;28.42;13.80;;;3.20;99.90;;;;;;5096692;28;20085;-77
2023/12/12 03:12:06;;;;;;;21.98;11.68;;;3.30;99.90;;;;;;5096884;28;20031;-77
2023/12/12 03:14:34;;;;;;;27.33;12.70;;;3.10;99.90;;;;;;5079521;28;20126;-77
2023/12/12 03:17:00;;;;;;;27.40;12.88;;;3.10;99.90;;;;;;5096361;28;20134;-77
2023/12/12 03:19:26;;;;;;;29.30;13.27;;;3.10;99.90;;;;;;5079848;28;20138;-77
2023/12/12 03:21:51;;;;;;;35.63;15.73;;;3.20;99.90;;;;;;5096082;28;20039;-77
2023/12/12 03:24:17;;;;;;;34.28;15.00;;;3.10;99.90;;;;;;5096620;28;20039;-77
2023/12/12 03:26:46;;;;;;;69.82;19.52;;;3.10;99.90;;;;;;5096525;28;20036;-77
2023/12/12 03:29:12;;;;;;;23.63;12.23;;;3.10;99.90;;;;;;5096243;28;20050;-77
2023/12/12 03:31:41;;;;;;;52.88;18.35;;;3.00;99.90;;;;;;5096214;28;20055;-77
2023/12/12 03:34:08;;;;;;;46.30;18.13;;;3.10;99.90;;;;;;5096514;28;20051;-77
2023/12/12 03:36:34;;;;;;;29.35;14.82;;;3.10;99.90;;;;;;5079663;28;20055;-77
2023/12/12 03:39:00;;;;;;;47.60;18.52;;;3.10;99.90;;;;;;5096394;28;20093;-77
2023/12/12 03:41:28;;;;;;;50.90;19.52;;;3.10;99.90;;;;;;5095983;28;20044;-77
2023/12/12 03:43:54;;;;;;;59.85;20.55;;;3.10;99.90;;;;;;5095926;28;20154;-77
2023/12/12 03:46:20;;;;;;;60.58;20.80;;;3.10;99.90;;;;;;5095973;28;20048;-77
2023/12/12 03:48:46;;;;;;;80.95;22.73;;;3.20;99.90;;;;;;5095907;28;20036;-77
2023/12/12 03:51:12;;;;;;;53.88;19.75;;;3.20;99.90;;;;;;5096121;28;20058;-77
2023/12/12 03:53:41;;;;;;;46.47;17.73;;;3.20;99.90;;;;;;5096017;28;20040;-76
2023/12/12 03:56:07;;;;;;;33.65;15.85;;;3.20;99.90;;;;;;5062251;28;20075;-77
2023/12/12 03:58:33;;;;;;;53.03;19.38;;;3.20;99.90;;;;;;5078670;28;20047;-77
2023/12/12 04:00:59;;;;;;;39.30;17.10;;;3.20;99.90;;;;;;5095743;28;20040;-77
2023/12/12 04:03:26;;;;;;;141.50;22.70;;;3.50;99.90;;;;;;5095496;28;20058;-77
2023/12/12 04:05:51;;;;;;;86.68;22.58;;;3.30;99.90;;;;;;5094854;28;20036;-76
2023/12/12 04:08:17;;;;;;;81.75;22.55;;;3.30;99.90;;;;;;5095888;28;20073;-77
2023/12/12 04:10:43;;;;;;;66.13;21.73;;;3.30;99.90;;;;;;5095482;28;20043;-76
2023/12/12 04:13:09;;;;;;;73.22;23.65;;;3.40;99.90;;;;;;5095465;28;20081;-76
2023/12/12 04:15:35;;;;;;;59.78;21.15;;;3.40;99.90;;;;;;5095501;28;20046;-77
2023/12/12 04:18:01;;;;;;;61.92;22.13;;;3.40;99.90;;;;;;5095641;28;20045;-77
2023/12/12 04:20:27;;;;;;;65.68;22.05;;;3.40;99.90;;;;;;5095480;28;20068;-76
2023/12/12 04:22:53;;;;;;;39.80;18.17;;;3.50;99.90;;;;;;5095387;28;20040;-77
2023/12/12 04:25:19;;;;;;;55.03;21.73;;;3.40;99.90;;;;;;5095483;28;20035;-76
2023/12/12 04:27:46;;;;;;;47.10;19.00;;;3.40;99.90;;;;;;5095240;28;20043;-77
2023/12/12 04:30:13;;;;;;;50.83;19.88;;;3.40;99.90;;;;;;5095283;28;20122;-77
2023/12/12 04:32:38;;;;;;;60.10;21.73;;;3.40;99.90;;;;;;5078319;28;20044;-77
2023/12/12 04:35:09;;;;;;;56.60;21.05;;;3.50;99.90;;;;;;5095425;28;20432;-77
2023/12/12 04:37:35;;;;;;;64.70;21.35;;;3.40;99.90;;;;;;5078193;28;20048;-78
2023/12/12 04:40:01;;;;;;;45.83;19.33;;;3.50;99.90;;;;;;5095102;28;20130;-70
2023/12/12 04:42:26;;;;;;;63.60;21.27;;;3.50;99.90;;;;;;5094981;28;20178;-71
2023/12/12 04:44:52;;;;;;;91.47;24.92;;;3.50;99.90;;;;;;5095077;28;20126;-71
2023/12/12 04:47:18;;;;;;;72.95;23.27;;;3.50;99.90;;;;;;5095095;28;20452;-70
2023/12/12 04:49:43;;;;;;;152.63;26.50;;;3.60;99.90;;;;;;5094971;28;20110;-70
2023/12/12 04:52:09;;;;;;;60.22;23.10;;;3.60;99.90;;;;;;5078366;28;20069;-70
2023/12/12 04:54:35;;;;;;;64.22;23.10;;;3.60;99.90;;;;;;5078163;28;20042;-70
2023/12/12 04:57:00;;;;;;;127.95;26.52;;;3.60;99.90;;;;;;5095025;28;20050;-71
2023/12/12 04:59:26;;;;;;;73.72;24.17;;;3.60;99.90;;;;;;5077721;28;20059;-70
2023/12/12 05:01:52;;;;;;;73.57;21.40;;;3.60;99.90;;;;;;5094657;28;20107;-71
2023/12/12 05:04:18;;;;;;;79.78;23.42;;;3.60;99.90;;;;;;5094804;28;20039;-71
2023/12/12 05:06:44;;;;;;;52.70;20.85;;;3.60;99.90;;;;;;5094912;28;20495;-70
2023/12/12 05:09:09;;;;;;;60.78;22.73;;;3.60;99.90;;;;;;5094659;28;20077;-70
2023/12/12 05:11:36;;;;;;;55.60;21.90;;;3.60;99.90;;;;;;5078001;28;20079;-70
2023/12/12 05:14:04;;;;;;;67.63;23.42;;;3.60;99.90;;;;;;5078158;28;20445;-71
2023/12/12 05:16:30;;;;;;;56.05;21.83;;;3.50;99.90;;;;;;5095741;28;20122;-70
2023/12/12 05:18:56;;;;;;;53.85;21.38;;;3.50;99.90;;;;;;5099062;28;20058;-71
2023/12/12 05:21:22;;;;;;;55.17;21.63;;;3.50;99.90;;;;;;5098794;28;20122;-70
2023/12/12 05:23:49;;;;;;;55.15;22.00;;;3.50;99.90;;;;;;5098637;28;20464;-71
2023/12/12 05:26:15;;;;;;;261.08;29.60;;;3.50;99.90;;;;;;5098558;28;20040;-70
2023/12/12 05:28:41;;;;;;;102.57;24.75;;;3.60;99.90;;;;;;5098763;28;20035;-70
2023/12/12 05:31:07;;;;;;;122.55;25.88;;;3.70;99.90;;;;;;5098444;28;20086;-70
2023/12/12 05:33:33;;;;;;;77.55;26.55;;;3.60;99.90;;;;;;5098205;28;20082;-70
2023/12/12 05:35:59;;;;;;;51.97;22.00;;;3.60;99.90;;;;;;5081533;28;20039;-70
2023/12/12 05:38:25;;;;;;;253.27;30.02;;;3.60;99.90;;;;;;5098201;28;20050;-71
2023/12/12 05:40:51;;;;;;;268.00;28.63;;;3.60;99.90;;;;;;5098277;28;20127;-70
2023/12/12 05:43:16;;;;;;;203.23;29.02;;;3.60;99.90;;;;;;5098241;28;20040;-71
2023/12/12 05:45:42;;;;;;;800.45;40.15;;;3.70;99.90;;;;;;5098307;28;20043;-71
2023/12/12 05:48:08;;;;;;;872.60;44.22;;;3.70;99.90;;;;;;5098160;28;20119;-71
2023/12/12 05:50:34;;;;;;;715.95;39.83;;;3.70;99.90;;;;;;5098675;28;20039;-77
2023/12/12 05:53:00;;;;;;;780.45;44.55;;;3.80;99.90;;;;;;5081134;28;20039;-77
2023/12/12 05:55:28;;;;;;;1192.95;55.92;;;3.70;99.90;;;;;;5081437;28;20410;-77
2023/12/12 05:57:53;;;;;;;1031.10;51.50;;;3.70;99.90;;;;;;5097877;28;20121;-77
2023/12/12 06:04:01;;;;;;;789.60;39.92;;;3.90;99.90;;;;;;5097974;28;20085;-77
2023/12/12 06:06:27;;;;;;;889.10;47.05;;;4.00;99.90;;;;;;5077961;28;20043;-77
2023/12/12 06:08:52;;;;;;;633.15;38.42;;;4.00;99.90;;;;;;5077706;28;20036;-77
2023/12/12 06:11:21;;;;;;;976.65;51.28;;;4.00;99.90;;;;;;5077190;28;20070;-77
2023/12/12 06:13:46;;;;;;;870.05;54.85;;;4.00;99.90;;;;;;5077613;28;20076;-77
2023/12/12 06:16:12;;;;;;;452.27;41.53;;;4.10;99.90;;;;;;5060964;28;20082;-77
2023/12/12 06:18:38;;;;;;;368.25;41.53;;;4.10;99.90;;;;;;5060660;28;20040;-77
2023/12/12 06:21:04;;;;;;;507.75;47.80;;;4.20;99.90;;;;;;5077172;28;20044;-77
2023/12/12 06:23:30;;;;;;;263.65;40.22;;;4.30;99.90;;;;;;5077227;28;20119;-77
2023/12/12 06:25:56;;;;;;;367.80;44.28;;;4.50;99.90;;;;;;5077590;28;20040;-77
2023/12/12 06:28:22;;;;;;;630.95;53.63;;;4.40;99.90;;;;;;5043232;28;20063;-77
2023/12/12 06:30:48;;;;;;;240.27;38.95;;;4.40;99.90;;;;;;5077203;28;20104;-75
2023/12/12 06:33:13;;;;;;;731.78;56.95;;;4.40;99.90;;;;;;5077005;28;20043;-75
2023/12/12 06:35:39;;;;;;;365.98;46.15;;;4.50;99.90;;;;;;5076998;28;20043;-75
2023/12/12 06:38:05;;;;;;;576.13;53.95;;;4.50;99.90;;;;;;5077004;28;20132;-75
2023/12/12 06:40:30;;;;;;;696.45;59.08;;;4.60;99.90;;;;;;5060143;28;20036;-76
2023/12/12 06:42:56;;;;;;;561.55;54.72;;;4.70;99.90;;;;;;5076593;28;20040;-75
2023/12/12 06:45:22;;;;;;;530.75;56.22;;;4.70;99.90;;;;;;5076961;28;20044;-75
2023/12/12 06:47:48;;;;;;;679.47;62.92;;;4.70;99.90;;;;;;5076930;28;20082;-75
2023/12/12 06:50:13;;;;;;;370.55;51.30;;;4.80;99.90;;;;;;5060214;28;20032;-75
2023/12/12 06:52:40;;;;;;;416.35;49.95;;;4.80;99.90;;;;;;5076607;28;20044;-75
2023/12/12 06:55:06;;;;;;;492.15;53.33;;;4.80;99.90;;;;;;5076679;28;20070;-75
2023/12/12 06:57:32;;;;;;;320.33;51.10;;;4.90;99.90;;;;;;5076605;28;20044;-75
2023/12/12 06:59:58;;;;;;;531.33;65.68;;;4.90;99.90;;;;;;5059795;28;20048;-75
2023/12/12 07:02:23;;;;;;;255.45;53.05;;;4.90;99.90;;;;;;5076416;28;20047;-75
2023/12/12 07:04:49;;;;;;;422.85;60.15;;;5.00;99.90;;;;;;5076372;28;20123;-75
2023/12/12 07:07:15;;;;;;;349.67;54.40;;;5.00;99.90;;;;;;5076392;28;20108;-75
2023/12/12 07:09:41;;;;;;;404.83;62.30;;;5.10;99.90;;;;;;5076517;28;20036;-76
2023/12/12 07:12:07;;;;;;;256.85;54.03;;;5.10;99.90;;;;;;5059821;28;20067;-76
2023/12/12 07:14:33;;;;;;;437.63;65.90;;;5.10;99.90;;;;;;5076199;28;20097;-76
2023/12/12 07:16:59;;;;;;;331.83;62.72;;;5.30;99.90;;;;;;5059796;28;20127;-76
2023/12/12 07:19:25;;;;;;;272.75;57.10;;;5.20;99.90;;;;;;5059766;28;20051;-76
2023/12/12 07:21:50;;;;;;;287.95;57.25;;;5.20;99.90;;;;;;5076169;28;20112;-76
2023/12/12 07:24:17;;;;;;;366.98;68.50;;;5.20;99.90;;;;;;5076365;28;20154;-76
2023/12/12 07:26:46;;;;;;;445.13;70.43;;;5.30;99.90;;;;;;5076214;28;20505;-75
2023/12/12 07:29:17;;;;;;;386.23;69.18;;;5.20;99.90;;;;;;5075959;28;20150;-75
2023/12/12 07:31:46;;;;;;;331.90;67.03;;;5.30;99.90;;;;;;5076116;28;20036;-76
2023/12/12 07:34:12;;;;;;;368.65;68.22;;;5.30;99.90;;;;;;5076039;28;20484;-75
2023/12/12 07:36:39;;;;;;;290.58;60.97;;;5.30;99.90;;;;;;5076014;28;20568;-76
2023/12/12 07:39:05;;;;;;;357.23;66.47;;;5.30;99.90;;;;;;5076137;28;20515;-76
2023/12/12 07:41:35;;;;;;;283.33;64.78;;;5.20;99.90;;;;;;5058090;28;20044;-76
2023/12/12 07:44:01;;;;;;;409.42;70.40;;;5.30;99.90;;;;;;5075739;28;20036;-76
2023/12/12 07:46:27;;;;;;;385.83;66.03;;;5.20;99.90;;;;;;5075920;28;20511;-76
2023/12/12 07:48:52;;;;;;;295.48;61.92;;;5.20;99.90;;;;;;5075836;28;20032;-76
2023/12/12 07:51:18;;;;;;;631.90;76.68;;;5.10;99.90;;;;;;5058806;28;20078;-76
2023/12/12 07:53:44;;;;;;;328.23;62.70;;;5.10;99.90;;;;;;5042397;28;20105;-76
2023/12/12 07:56:09;;;;;;;439.52;70.50;;;5.00;99.90;;;;;;5075619;28;20079;-77
2023/12/12 07:58:35;;;;;;;286.17;61.28;;;5.00;99.90;;;;;;5075485;28;20044;-76
2023/12/12 08:01:01;;;;;;;255.98;59.95;;;5.00;99.90;;;;;;5075516;28;20051;-76
2023/12/12 08:03:27;;;;;;;204.23;56.83;;;5.00;99.90;;;;;;5075582;28;20044;-76
2023/12/12 08:05:53;;;;;;;276.52;63.80;;;4.90;99.90;;;;;;5058567;28;20059;-76
2023/12/12 08:08:18;;;;;;;222.68;59.80;;;5.00;99.90;;;;;;5058792;28;20052;-75
2023/12/12 08:10:44;;;;;;;261.67;66.45;;;5.00;99.90;;;;;;5075009;28;20044;-76
2023/12/12 08:13:10;;;;;;;242.15;63.50;;;5.10;99.90;;;;;;5075447;28;20036;-76
2023/12/12 08:15:37;;;;;;;261.52;66.80;;;5.10;99.90;;;;;;5075145;28;20044;-76
2023/12/12 08:18:02;;;;;;;244.75;66.47;;;5.00;99.90;;;;;;5041901;28;20480;-76
2023/12/12 08:20:28;;;;;;;232.55;66.25;;;5.00;99.90;;;;;;5075113;28;20130;-76
2023/12/12 08:22:56;;;;;;;259.10;69.18;;;5.00;99.90;;;;;;5074988;28;20093;-76
2023/12/12 08:25:22;;;;;;;232.45;68.00;;;5.00;99.90;;;;;;5075342;28;20541;-76
2023/12/12 08:27:48;;;;;;;290.20;71.57;;;5.00;99.90;;;;;;5075040;28;20044;-76
2023/12/12 08:30:13;;;;;;;293.92;70.95;;;4.90;99.90;;;;;;5075172;28;20547;-76
2023/12/12 08:32:39;;;;;;;254.65;67.72;;;5.00;99.90;;;;;;5074762;28;20050;-76
2023/12/12 08:35:07;;;;;;;229.88;65.20;;;5.00;99.90;;;;;;5074764;28;20048;-77
2023/12/12 08:37:33;;;;;;;269.15;69.05;;;4.90;99.90;;;;;;5074706;28;20048;-76
2023/12/12 08:39:59;;;;;;;248.77;68.22;;;5.00;99.90;;;;;;5074771;28;20035;-76
2023/12/12 08:42:26;;;;;;;314.00;71.93;;;4.90;99.90;;;;;;5074669;28;20083;-76
2023/12/12 08:44:51;;;;;;;277.23;69.25;;;5.00;99.90;;;;;;5074868;28;20032;-76
2023/12/12 08:47:17;;;;;;;218.52;68.53;;;4.90;99.90;;;;;;5074800;28;20047;-76
2023/12/12 08:49:43;;;;;;;200.52;69.20;;;4.90;99.90;;;;;;5058099;28;20043;-76
2023/12/12 08:52:09;;;;;;;194.27;69.93;;;4.90;99.90;;;;;;5057765;28;20040;-76
2023/12/12 08:54:37;;;;;;;219.07;73.10;;;5.00;99.90;;;;;;5074755;28;20144;-76
2023/12/12 08:57:04;;;;;;;212.88;72.68;;;5.10;99.90;;;;;;5057540;28;20047;-76
2023/12/12 08:59:30;;;;;;;192.38;69.38;;;5.20;99.90;;;;;;5074518;28;20060;-76
2023/12/12 09:01:56;;;;;;;212.48;72.75;;;5.30;99.90;;;;;;5074624;28;20078;-76
2023/12/12 09:04:21;;;;;;;518.80;83.93;;;5.30;99.90;;;;;;5057899;28;20036;-76
2023/12/12 09:06:47;;;;;;;269.60;77.13;;;5.40;99.90;;;;;;5057572;28;20040;-76
2023/12/12 09:09:14;;;;;;;361.58;79.13;;;5.40;99.90;;;;;;5058024;28;20035;-76
2023/12/12 09:11:40;;;;;;;389.35;83.88;;;5.40;99.90;;;;;;5074206;28;20120;-76
2023/12/12 09:14:07;;;;;;;298.40;78.70;;;5.30;99.90;;;;;;5091264;28;20131;-76
2023/12/12 09:16:33;;;;;;;343.50;76.72;;;5.40;99.90;;;;;;5091648;28;20054;-76
2023/12/12 09:18:58;;;;;;;195.07;74.57;;;5.30;99.90;;;;;;5074584;28;20127;-71
2023/12/12 09:21:24;;;;;;;156.70;63.03;;;5.30;99.90;;;;;;5057764;28;20403;-71
2023/12/12 09:23:50;;;;;;;150.63;60.13;;;5.40;99.90;;;;;;5074549;28;20038;-70
2023/12/12 09:26:16;;;;;;;131.52;56.42;;;5.50;99.90;;;;;;5074287;28;20040;-71
2023/12/12 09:28:42;;;;;;;141.07;59.85;;;5.60;99.90;;;;;;5074473;28;20040;-70
2023/12/12 09:31:09;;;;;;;138.45;57.65;;;5.50;99.90;;;;;;5074405;28;20112;-70
2023/12/12 09:33:35;;;;;;;136.68;58.00;;;5.50;99.90;;;;;;5074012;28;20073;-71
2023/12/12 09:36:01;;;;;;;144.40;55.90;;;5.60;99.90;;;;;;5074409;28;20044;-70
2023/12/12 09:38:27;;;;;;;132.18;52.15;;;5.70;99.90;;;;;;5074326;28;20040;-70
2023/12/12 09:40:52;;;;;;;186.93;52.75;;;5.70;99.90;;;;;;5074104;28;20115;-70
2023/12/12 09:43:24;;;;;;;167.13;55.45;;;5.80;99.90;;;;;;5074297;28;20446;-70
2023/12/12 09:45:51;;;;;;;344.73;54.58;;;5.70;99.90;;;;;;5058384;28;20523;-70
2023/12/12 09:48:18;;;;;;;369.75;57.67;;;5.80;99.90;;;;;;5074156;28;20044;-70
2023/12/12 09:50:47;;;;;;;393.38;57.35;;;5.80;99.90;;;;;;5073885;28;20143;-70
2023/12/12 09:53:13;;;;;;;382.70;59.72;;;5.70;99.90;;;;;;5073955;28;20097;-70
2023/12/12 09:55:40;;;;;;;400.17;57.42;;;5.80;99.90;;;;;;5073954;28;20051;-70
2023/12/12 09:58:07;;;;;;;349.92;63.28;;;5.80;99.90;;;;;;5073926;28;20113;-70
2023/12/12 10:00:33;;;;;;;320.25;57.10;;;5.80;99.90;;;;;;5074121;28;20186;-70
2023/12/12 10:03:04;;;;;;;339.13;56.95;;;5.80;99.90;;;;;;5073990;28;20040;-70
2023/12/12 10:05:32;;;;;;;343.30;60.63;;;5.80;99.90;;;;;;5077460;28;20065;-70
2023/12/12 10:08:01;;;;;;;293.90;51.17;;;5.80;99.90;;;;;;5077465;28;20044;-70
2023/12/12 10:10:27;;;;;;;349.95;51.58;;;5.80;99.90;;;;;;5077494;28;20199;-71
2023/12/12 10:12:52;;;;;;;285.52;44.50;;;5.80;99.90;;;;;;5060828;28;20412;-70
2023/12/12 10:15:26;;;;;;;226.35;39.20;;;5.80;99.90;;;;;;5060595;28;20111;-70
2023/12/12 10:17:57;;;;;;;204.38;39.90;;;5.80;99.90;;;;;;5077329;28;20080;-70
2023/12/12 10:20:27;;;;;;;153.75;39.63;;;5.80;99.90;;;;;;5077400;28;20127;-70
2023/12/12 10:22:54;;;;;;;161.65;41.03;;;5.80;99.90;;;;;;5060623;28;20127;-70
2023/12/12 10:25:22;;;;;;;112.30;35.38;;;5.70;99.90;;;;;;5060583;28;20494;-70
2023/12/12 10:27:52;;;;;;;70.50;32.15;;;5.70;99.90;;;;;;5061002;28;20036;-70
2023/12/12 10:30:22;;;;;;;62.42;34.22;;;5.70;99.90;;;;;;5077568;28;20400;-70
2023/12/12 10:32:52;;;;;;;71.82;37.22;;;5.70;99.90;;;;;;5077159;28;20047;-71
2023/12/12 10:35:22;;;;;;;69.22;36.17;;;5.70;99.90;;;;;;5077325;28;20369;-71
2023/12/12 10:37:52;;;;;;;107.13;40.17;;;5.70;99.90;;;;;;5076990;28;20040;-70
2023/12/12 10:40:22;;;;;;;125.65;42.28;;;5.60;99.90;;;;;;5076994;28;20062;-71
2023/12/12 10:42:49;;;;;;;185.13;47.13;;;5.60;99.90;;;;;;5076669;28;20109;-70
2023/12/12 10:45:16;;;;;;;95.30;39.92;;;5.60;99.90;;;;;;5077304;28;20516;-71
2023/12/12 10:47:50;;;;;;;74.15;34.50;;;5.60;99.90;;;;;;5076920;28;20089;-70
2023/12/12 10:50:17;;;;;;;73.93;35.20;;;5.60;99.90;;;;;;5076796;28;20114;-70
2023/12/12 10:52:48;;;;;;;66.43;30.63;;;5.70;99.90;;;;;;5076787;28;20044;-69
2023/12/12 10:55:17;;;;;;;58.92;28.90;;;5.70;99.90;;;;;;5076919;28;20392;-70
2023/12/12 10:57:44;;;;;;;75.07;35.38;;;5.70;99.90;;;;;;5076725;28;20048;-70
2023/12/12 11:00:16;;;;;;;70.95;36.00;;;5.70;99.90;;;;;;5076447;28;20052;-70
2023/12/12 11:02:43;;;;;;;73.07;34.87;;;5.60;99.90;;;;;;5076369;28;20048;-71
2023/12/12 11:05:11;;;;;;;96.40;39.05;;;5.60;99.90;;;;;;5059691;28;20395;-70
2023/12/12 11:07:42;;;;;;;101.68;40.25;;;5.60;99.90;;;;;;5059379;28;20127;-70
2023/12/12 11:10:15;;;;;;;94.63;34.95;;;5.60;99.90;;;;;;5059827;28;20036;-70
2023/12/12 11:13:03;;;;;;;89.68;37.63;;;5.70;99.90;;;;;;5076449;28;20549;-71
2023/12/12 11:15:30;;;;;;;95.65;33.42;;;5.70;99.90;;;;;;5075681;28;20047;-71
2023/12/12 11:17:57;;;;;;;131.25;37.42;;;5.80;99.90;;;;;;5076327;28;20036;-71
2023/12/12 11:20:22;;;;;;;98.32;34.05;;;5.80;99.90;;;;;;5059213;28;20069;-71
2023/12/12 11:22:53;;;;;;;105.50;36.45;;;5.90;99.90;;;;;;5076037;28;20048;-71
2023/12/12 11:25:20;;;;;;;133.30;40.60;;;6.00;99.90;;;;;;5076290;28;20508;-71
2023/12/12 11:27:47;;;;;;;80.22;36.83;;;6.00;99.90;;;;;;5042857;28;20036;-71
2023/12/12 11:30:14;;;;;;;79.75;29.60;;;6.00;99.90;;;;;;5059285;28;20040;-71
2023/12/12 11:32:43;;;;;;;114.72;40.25;;;6.00;99.90;;;;;;5075894;28;20148;-71
2023/12/12 11:35:30;;;;;;;165.15;45.67;;;6.10;99.90;;;;;;5076015;28;20036;-71
2023/12/12 11:37:58;;;;;;;124.32;43.78;;;6.10;99.90;;;;;;5075710;28;20048;-71
2023/12/12 11:40:26;;;;;;;136.00;42.75;;;6.10;99.90;;;;;;5075938;28;20112;-71
2023/12/12 11:42:54;;;;;;;150.93;48.30;;;6.20;99.90;;;;;;5075781;28;20133;-71
2023/12/12 11:45:30;;;;;;;109.50;42.90;;;6.20;99.90;;;;;;5075938;28;20479;-71
2023/12/12 11:47:58;;;;;;;201.00;51.83;;;6.20;99.90;;;;;;5075479;28;20055;-71
2023/12/12 11:50:25;;;;;;;138.88;45.38;;;6.20;99.90;;;;;;5075615;28;20093;-71
2023/12/12 11:52:50;;;;;;;54.20;22.95;;;6.20;99.90;;;;;;5075488;28;20039;-71
2023/12/12 11:55:32;;;;;;;94.43;35.50;;;6.20;99.90;;;;;;5075573;28;20126;-72
2023/12/12 11:58:07;;;;;;;73.95;29.58;;;6.30;99.90;;;;;;5075420;28;20058;-71
2023/12/12 12:00:37;;;;;;;120.60;41.10;;;6.30;99.90;;;;;;5075380;28;20051;-71
2023/12/12 12:03:05;;;;;;;128.13;47.50;;;6.30;99.90;;;;;;5092391;28;20075;-71
2023/12/12 12:05:32;;;;;;;206.57;50.90;;;6.40;99.90;;;;;;5075089;28;20036;-71
2023/12/12 12:07:59;;;;;;;193.02;52.53;;;6.40;99.90;;;;;;5075536;28;20500;-71
2023/12/12 12:10:25;;;;;;;190.98;54.72;;;6.40;99.90;;;;;;5058481;28;20036;-71
2023/12/12 12:12:58;;;;;;;174.75;52.03;;;6.40;99.90;;;;;;5075524;28;20431;-71
2023/12/12 12:15:26;;;;;;;223.93;61.53;;;6.50;99.90;;;;;;5075110;28;20083;-71
2023/12/12 12:17:52;;;;;;;249.10;62.33;;;6.50;99.90;;;;;;5075218;28;20070;-71
2023/12/12 12:20:18;;;;;;;199.18;58.42;;;6.50;99.90;;;;;;5075024;28;20046;-71
2023/12/12 12:22:44;;;;;;;230.75;63.63;;;6.50;99.90;;;;;;5074914;28;20036;-71
2023/12/12 12:25:10;;;;;;;185.05;58.80;;;6.60;99.90;;;;;;5075090;28;20042;-71
2023/12/12 12:27:56;;;;;;;197.25;59.97;;;6.60;99.90;;;;;;5074366;28;20118;-71
2023/12/12 12:30:23;;;;;;;209.77;59.90;;;6.70;99.90;;;;;;5057526;28;20044;-71
2023/12/12 12:33:09;;;;;;;196.00;60.33;;;6.60;99.90;;;;;;5074975;28;20044;-71
2023/12/12 12:35:35;;;;;;;191.98;61.80;;;6.70;99.90;;;;;;5075278;28;20430;-71